createdAt,value
2023-01-11T00:00:16.958Z,9.605755
2023-01-11T00:05:16.600Z,9.547887
2023-01-11T00:10:15.936Z,9.545985
2023-01-11T00:15:16.765Z,9.857971
2023-01-11T00:20:16.103Z,10.034507
2023-01-11T00:25:16.563Z,9.987857
2023-01-11T00:30:16.399Z,9.890780
2023-01-11T00:35:15.595Z,10.200699
2023-01-11T00:40:16.374Z,9.900000
2023-01-11T00:45:15.775Z,9.501418
2023-01-11T00:50:16.408Z,9.602817
2023-01-11T00:55:15.570Z,9.634965
2023-01-11T01:00:15.694Z,9.509091
2023-01-11T01:05:16.016Z,9.498592
2023-01-11T01:10:16.246Z,9.369504
2023-01-11T01:15:15.617Z,9.488732
2023-01-11T01:20:17.337Z,9.392361
2023-01-11T01:25:16.051Z,9.184138
2023-01-11T01:30:15.989Z,9.107483
2023-01-11T01:35:15.861Z,9.044286
2023-01-11T01:40:16.596Z,8.989437
2023-01-11T01:45:15.912Z,8.805634
2023-01-11T01:50:16.042Z,8.426573
2023-01-11T01:55:15.817Z,8.384397
2023-01-11T02:00:15.661Z,8.364539
2023-01-11T02:05:16.217Z,8.540000
2023-01-11T02:10:16.263Z,8.578378
2023-01-11T02:15:16.212Z,8.600694
2023-01-11T02:20:15.986Z,8.613889
2023-01-11T02:25:16.274Z,8.455479
2023-01-11T02:30:16.129Z,8.485616
2023-01-11T02:35:15.629Z,8.443151
2023-01-11T02:40:16.425Z,8.538889
2023-01-11T02:45:15.854Z,8.429371
2023-01-11T02:50:16.049Z,8.315385
2023-01-11T02:55:15.862Z,8.316667
2023-01-11T03:00:15.945Z,8.408966
2023-01-11T03:05:16.578Z,8.473103
2023-01-11T03:10:15.985Z,8.526712
2023-01-11T03:15:15.715Z,8.620548
2023-01-11T03:20:16.141Z,8.523288
2023-01-11T03:25:15.752Z,8.437671
2023-01-11T03:30:16.232Z,8.404138
2023-01-11T03:35:17.249Z,8.308333
2023-01-11T03:40:15.636Z,8.334932
2023-01-11T03:45:15.927Z,8.387413
2023-01-11T03:50:16.052Z,8.321678
2023-01-11T03:55:16.164Z,8.111268
2023-01-11T04:00:15.784Z,7.982069
2023-01-11T04:05:15.738Z,7.878014
2023-01-11T04:10:16.011Z,7.861972
2023-01-11T04:15:16.751Z,7.744444
2023-01-11T04:20:16.362Z,7.745455
2023-01-11T04:25:15.791Z,7.780282
2023-01-11T04:30:16.523Z,7.735211
2023-01-11T04:35:16.123Z,7.713380
2023-01-11T04:40:16.374Z,7.731250
2023-01-11T04:45:15.716Z,7.738462
2023-01-11T04:50:16.303Z,7.360839
2023-01-11T04:55:16.115Z,7.487500
2023-01-11T05:00:16.221Z,7.873427
2023-01-11T05:05:15.623Z,7.945775
2023-01-11T05:10:16.131Z,8.055634
2023-01-11T05:15:15.853Z,7.904861
2023-01-11T05:20:15.837Z,7.906944
2023-01-11T05:25:16.081Z,7.395139
2023-01-11T05:30:16.687Z,7.445833
2023-01-11T05:35:15.735Z,7.571528
2023-01-11T05:40:15.756Z,7.711724
2023-01-11T05:45:15.757Z,7.875172
2023-01-11T05:50:15.962Z,7.987413
2023-01-11T05:55:16.948Z,8.193662
2023-01-11T06:00:15.577Z,8.177465
2023-01-11T06:05:15.825Z,7.793571
2023-01-11T06:10:16.017Z,7.622464
2023-01-11T06:15:15.719Z,7.644366
2023-01-11T06:20:16.526Z,7.483803
2023-01-11T06:25:16.217Z,7.622917
2023-01-11T06:30:16.010Z,7.683803
2023-01-11T06:35:16.275Z,7.658042
2023-01-11T06:40:16.693Z,7.583803
2023-01-11T06:45:15.819Z,7.899306
2023-01-11T06:50:16.212Z,8.185915
2023-01-11T06:55:15.709Z,8.251429
2023-01-11T07:00:16.714Z,8.484028
2023-01-11T07:05:18.848Z,8.515385
2023-01-11T07:10:15.927Z,8.355556
2023-01-11T07:15:15.966Z,8.367133
2023-01-11T07:20:16.152Z,8.498592
2023-01-11T07:25:15.633Z,8.962937
2023-01-11T07:30:16.361Z,9.181379
2023-01-11T07:35:15.869Z,9.459441
2023-01-11T07:40:16.276Z,9.216901
2023-01-11T07:45:16.706Z,9.268750
2023-01-11T07:50:15.615Z,9.396503
2023-01-11T07:55:15.927Z,9.402098
2023-01-11T08:00:15.578Z,9.543056
2023-01-11T08:05:15.999Z,9.572028
2023-01-11T08:10:15.781Z,9.632639
2023-01-11T08:15:15.840Z,9.783916
2023-01-11T08:20:15.574Z,9.710417
2023-01-11T08:25:15.671Z,9.637500
2023-01-11T08:30:16.371Z,9.033793
2023-01-11T08:35:15.687Z,9.582759
2023-01-11T08:40:16.795Z,9.655556
2023-01-11T08:45:16.181Z,9.178472
2023-01-11T08:50:15.961Z,8.765278
2023-01-11T08:55:16.301Z,9.326897
2023-01-11T09:00:16.130Z,9.797203
2023-01-11T09:05:18.095Z,9.511806
2023-01-11T09:10:15.753Z,9.336806
2023-01-11T09:15:16.288Z,9.618750
2023-01-11T09:20:15.969Z,9.620280
2023-01-11T09:25:15.605Z,9.774825
2023-01-11T09:30:15.819Z,9.720280
2023-01-11T09:35:15.690Z,9.546528
2023-01-11T09:40:16.179Z,9.464384
2023-01-11T09:45:18.532Z,9.421528
2023-01-11T09:50:16.056Z,9.488966
2023-01-11T09:55:15.516Z,9.151049
2023-01-11T10:00:16.018Z,9.496528
2023-01-11T10:05:16.302Z,9.502069
2023-01-11T10:18:22.407Z,8.856463
2023-01-11T10:18:31.016Z,8.856463
2023-01-11T10:18:37.852Z,8.856463
2023-01-11T10:20:15.805Z,8.623288
2023-01-11T10:25:16.536Z,8.806803
2023-01-11T10:30:15.736Z,9.199320
2023-01-11T10:35:16.368Z,9.528767
2023-01-11T10:40:15.591Z,9.115541
2023-01-11T10:45:16.279Z,9.487755
2023-01-11T10:50:15.531Z,9.499310
2023-01-11T10:55:16.595Z,9.235374
2023-01-11T11:00:15.729Z,8.848299
2023-01-11T11:05:16.254Z,8.835811
2023-01-11T11:10:15.622Z,9.451351
2023-01-11T11:15:16.202Z,9.461644
2023-01-11T11:20:15.640Z,9.682313
2023-01-11T11:25:15.883Z,9.611724
2023-01-11T11:30:16.058Z,9.546897
2023-01-11T11:35:16.150Z,9.413793
2023-01-11T11:40:16.277Z,9.315385
2023-01-11T11:45:16.244Z,9.200694
2023-01-11T11:50:18.834Z,9.172535
2023-01-11T11:55:16.993Z,9.101370
2023-01-11T12:00:16.613Z,9.062069
2023-01-11T12:05:17.045Z,9.089583
2023-01-11T12:10:15.885Z,8.946479
2023-01-11T12:15:15.746Z,8.931724
2023-01-11T12:20:15.850Z,8.937762
2023-01-11T12:25:15.671Z,9.052740
2023-01-11T12:30:17.761Z,8.996599
2023-01-11T12:35:16.582Z,8.964384
2023-01-11T12:40:16.698Z,9.137584
2023-01-11T12:45:16.427Z,9.435172
2023-01-11T12:50:16.757Z,9.348630
2023-01-11T12:55:16.387Z,9.370470
2023-01-11T13:00:15.974Z,9.347945
2023-01-11T13:05:15.783Z,9.471812
2023-01-11T13:10:15.752Z,9.368919
2023-01-11T13:15:15.791Z,9.500000
2023-01-11T13:20:16.244Z,9.727333
2023-01-11T13:25:16.187Z,9.697315
2023-01-11T13:30:16.277Z,9.853691
2023-01-11T13:35:16.002Z,9.689116
2023-01-11T13:40:17.000Z,9.129932
2023-01-11T13:45:15.888Z,9.222069
2023-01-11T13:50:15.606Z,9.656250
2023-01-11T13:55:25.054Z,9.577622
2023-01-11T14:00:15.619Z,9.497203
2023-01-11T14:05:16.423Z,9.306993
2023-01-11T14:10:15.782Z,9.084397
2023-01-11T14:15:17.081Z,9.013380
2023-01-11T14:20:15.851Z,9.020000
2023-01-11T14:25:16.447Z,9.377622
2023-01-11T14:30:15.614Z,9.566897
2023-01-11T14:35:16.808Z,9.283453
2023-01-11T14:40:15.937Z,9.026950
2023-01-11T14:45:15.980Z,8.869853
2023-01-11T14:50:15.984Z,8.655072
2023-01-11T14:55:16.535Z,8.594326
2023-01-11T15:00:16.211Z,8.521168
2023-01-11T15:05:16.355Z,8.617143
2023-01-11T15:10:15.647Z,8.691667
2023-01-11T15:15:16.857Z,9.060417
2023-01-11T15:20:15.777Z,8.942759
2023-01-11T15:25:15.724Z,9.076761
2023-01-11T15:30:15.665Z,9.178014
2023-01-11T15:35:16.188Z,9.041176
2023-01-11T15:40:16.069Z,8.880435
2023-01-11T15:45:15.661Z,8.912857
2023-01-11T15:50:15.741Z,8.842143
2023-01-11T15:55:16.328Z,8.836691
2023-01-11T16:00:15.571Z,8.943885
2023-01-11T16:05:15.776Z,9.008571
2023-01-11T16:10:16.441Z,8.987943
2023-01-11T16:15:17.475Z,8.988571
2023-01-11T16:20:16.246Z,8.932867
2023-01-11T16:25:15.924Z,9.011511
2023-01-11T16:30:16.494Z,8.955000
2023-01-11T16:35:16.139Z,9.108633
2023-01-11T16:40:15.629Z,9.114685
2023-01-11T16:45:15.737Z,9.148966
2023-01-11T16:50:15.991Z,9.210563
2023-01-11T16:55:16.001Z,9.500000
2023-01-11T17:00:16.345Z,9.405036
2023-01-11T17:05:15.877Z,9.473427
2023-01-11T17:10:15.700Z,9.654167
2023-01-11T17:15:15.977Z,9.903650
2023-01-11T17:20:15.863Z,10.050704
2023-01-11T17:25:16.004Z,9.991608
2023-01-11T17:30:15.642Z,10.297973
2023-01-11T17:35:16.881Z,10.538667
2023-01-11T17:40:16.401Z,11.076510
2023-01-11T17:45:15.741Z,11.485906
2023-01-11T17:50:15.574Z,11.809396
2023-01-11T17:55:16.188Z,11.373469
2023-01-11T18:00:15.988Z,10.853103
2023-01-11T18:05:15.804Z,10.625874
2023-01-11T18:10:16.328Z,10.619444
2023-01-11T18:15:16.482Z,10.699301
2023-01-11T18:20:15.809Z,10.674825
2023-01-11T18:25:15.722Z,10.731690
2023-01-11T18:30:15.731Z,10.534266
2023-01-11T18:35:18.484Z,10.541549
2023-01-11T18:40:15.838Z,10.600704
2023-01-11T18:45:15.851Z,10.828671
2023-01-11T18:50:18.162Z,11.318493
2023-01-11T18:55:15.676Z,11.342069
2023-01-11T19:00:16.282Z,11.458108
2023-01-11T19:05:16.629Z,11.381208
2023-01-11T19:10:16.567Z,11.661905
2023-01-11T19:15:16.057Z,11.802721
2023-01-11T19:20:15.796Z,12.047917
2023-01-11T19:25:15.928Z,12.163889
2023-01-11T19:30:15.694Z,12.400000
2023-01-11T19:35:15.683Z,12.570345
2023-01-11T19:40:16.349Z,13.040559
2023-01-11T19:45:16.159Z,13.379167
2023-01-11T19:50:16.944Z,13.054167
2023-01-11T19:55:16.430Z,13.285517
2023-01-11T20:00:16.818Z,13.464384
2023-01-11T20:05:15.545Z,13.315862
2023-01-11T20:10:15.559Z,13.645890
2023-01-11T20:15:16.232Z,14.085417
2023-01-11T20:20:15.748Z,13.933103
2023-01-11T20:25:15.861Z,13.884722
2023-01-11T20:30:16.202Z,14.045139
2023-01-11T20:35:16.037Z,14.123077
2023-01-11T20:40:17.077Z,14.227083
2023-01-11T20:45:16.017Z,14.262585
2023-01-11T20:50:15.833Z,14.411034
2023-01-11T20:55:16.440Z,14.129655
2023-01-11T21:00:16.326Z,14.347945
2023-01-11T21:05:15.713Z,14.360000
2023-01-11T21:10:16.816Z,14.753472
2023-01-11T21:15:16.150Z,14.290972
2023-01-11T21:20:16.367Z,13.947917
2023-01-11T21:25:15.704Z,13.909028
2023-01-11T21:30:15.820Z,13.675000
2023-01-11T21:35:15.777Z,13.757343
2023-01-11T21:40:16.136Z,13.655944
2023-01-11T21:45:16.054Z,13.593793
2023-01-11T21:50:15.839Z,13.704110
2023-01-11T21:55:16.476Z,13.787838
2023-01-11T22:00:15.617Z,13.786897
2023-01-11T22:05:15.961Z,13.724658
2023-01-11T22:10:15.709Z,13.706944
2023-01-11T22:15:16.564Z,13.864336
2023-01-11T22:20:15.946Z,13.842657
2023-01-11T22:25:16.139Z,13.847917
2023-01-11T22:30:15.795Z,13.995833
2023-01-11T22:35:16.126Z,13.916667
2023-01-11T22:40:15.771Z,13.923448
2023-01-11T22:45:16.355Z,13.816552
2023-01-11T22:50:16.281Z,13.693750
2023-01-11T22:55:16.231Z,13.650345
2023-01-11T23:00:15.928Z,13.756164
2023-01-11T23:05:16.587Z,13.693793
2023-01-11T23:10:15.728Z,13.627778
2023-01-11T23:15:15.823Z,13.585517
2023-01-11T23:20:16.068Z,13.493662
2023-01-11T23:25:16.779Z,13.441667
2023-01-11T23:30:15.741Z,13.495862
2023-01-11T23:35:15.839Z,13.435664
2023-01-11T23:40:15.518Z,13.275342
2023-01-11T23:45:15.790Z,13.186395
2023-01-11T23:50:15.634Z,13.147260
2023-01-11T23:55:16.376Z,13.142759
